createdAt,value
2022-09-20T00:01:36.209Z,10.60
2022-09-20T00:04:05.773Z,10.60
2022-09-20T00:06:33.670Z,10.55
2022-09-20T00:09:01.650Z,10.53
2022-09-20T00:11:31.337Z,10.56
2022-09-20T00:13:59.408Z,10.54
2022-09-20T00:16:28.106Z,10.56
2022-09-20T00:18:56.485Z,10.19
2022-09-20T00:21:25.377Z,10.57
2022-09-20T00:23:53.030Z,10.58
2022-09-20T00:26:21.154Z,10.58
2022-09-20T00:28:48.411Z,10.56
2022-09-20T00:31:18.982Z,10.53
2022-09-20T00:34:04.842Z,10.48
2022-09-20T00:36:32.702Z,10.45
2022-09-20T00:39:00.872Z,10.41
2022-09-20T00:41:28.924Z,10.41
2022-09-20T00:43:56.721Z,10.43
2022-09-20T00:46:36.480Z,10.43
2022-09-20T00:49:12.556Z,10.42
2022-09-20T00:51:41.269Z,10.38
2022-09-20T00:54:10.784Z,10.37
2022-09-20T00:56:41.210Z,10.36
2022-09-20T00:59:11.571Z,10.37
2022-09-20T01:01:38.770Z,10.37
2022-09-20T01:04:06.382Z,10.38
2022-09-20T01:06:34.409Z,10.41
2022-09-20T01:09:03.459Z,10.45
2022-09-20T01:11:32.616Z,10.47
2022-09-20T01:13:59.779Z,10.48
2022-09-20T01:16:27.385Z,10.47
2022-09-20T01:18:57.717Z,10.43
2022-09-20T01:21:25.770Z,10.39
2022-09-20T01:23:55.963Z,10.38
2022-09-20T01:26:41.854Z,10.38
2022-09-20T01:29:24.406Z,10.42
2022-09-20T01:31:55.452Z,10.42
2022-09-20T01:34:29.833Z,10.44
2022-09-20T01:36:57.272Z,10.46
2022-09-20T01:39:40.522Z,10.44
2022-09-20T01:42:12.555Z,9.94
2022-09-20T01:44:43.399Z,10.42
2022-09-20T01:47:28.933Z,10.40
2022-09-20T01:50:15.601Z,10.43
2022-09-20T01:52:46.211Z,10.44
2022-09-20T01:55:31.240Z,10.46
2022-09-20T01:58:05.012Z,10.48
2022-09-20T02:00:46.183Z,10.48
2022-09-20T02:03:19.756Z,10.47
2022-09-20T02:06:05.581Z,10.47
2022-09-20T02:08:51.573Z,10.43
2022-09-20T02:11:24.878Z,10.43
2022-09-20T02:13:51.978Z,10.43
2022-09-20T02:16:38.024Z,10.41
2022-09-20T02:19:24.249Z,10.43
2022-09-20T02:22:04.346Z,10.45
2022-09-20T02:24:31.639Z,10.48
2022-09-20T02:27:23.532Z,10.54
2022-09-20T02:29:54.153Z,10.58
2022-09-20T02:32:40.415Z,10.60
2022-09-20T02:35:19.948Z,10.61
2022-09-20T02:37:56.152Z,10.63
2022-09-20T02:40:26.374Z,10.65
2022-09-20T02:43:09.206Z,10.66
2022-09-20T02:45:57.222Z,10.64
2022-09-20T02:48:30.064Z,10.61
2022-09-20T02:51:06.728Z,10.59
2022-09-20T02:53:39.781Z,10.52
2022-09-20T02:56:19.327Z,10.49
2022-09-20T02:59:10.490Z,10.52
2022-09-20T03:01:48.361Z,10.57
2022-09-20T03:04:25.199Z,10.60
2022-09-20T03:07:04.064Z,10.62
2022-09-20T03:09:31.740Z,10.62
2022-09-20T03:12:17.978Z,10.58
2022-09-20T03:15:00.863Z,10.58
2022-09-20T03:17:36.734Z,10.61
2022-09-20T03:20:13.097Z,10.62
2022-09-20T03:22:43.331Z,10.62
2022-09-20T03:25:29.552Z,10.63
2022-09-20T03:28:08.862Z,10.66
2022-09-20T03:30:55.363Z,10.71
2022-09-20T03:33:22.555Z,10.73
2022-09-20T03:35:53.932Z,10.75
2022-09-20T03:38:41.552Z,10.77
2022-09-20T03:41:11.916Z,10.80
2022-09-20T03:43:42.129Z,10.85
2022-09-20T03:46:28.852Z,10.87
2022-09-20T03:48:59.138Z,10.88
2022-09-20T03:51:33.896Z,10.90
2022-09-20T03:54:07.837Z,10.91
2022-09-20T03:56:45.616Z,10.93
2022-09-20T03:59:27.840Z,10.94
2022-09-20T04:02:10.750Z,10.96
2022-09-20T04:04:59.241Z,10.94
2022-09-20T04:07:50.381Z,10.94
2022-09-20T04:10:41.193Z,10.94
2022-09-20T04:13:08.440Z,10.94
2022-09-20T04:15:48.208Z,10.59
2022-09-20T04:18:41.734Z,11.00
2022-09-20T04:21:17.538Z,11.04
2022-09-20T04:23:59.652Z,11.08
2022-09-20T04:26:28.776Z,11.12
2022-09-20T04:29:06.029Z,11.18
2022-09-20T04:31:33.627Z,11.26
2022-09-20T04:34:02.225Z,11.32
2022-09-20T04:36:38.706Z,11.30
2022-09-20T04:39:11.753Z,11.26
2022-09-20T04:41:54.723Z,11.25
2022-09-20T04:44:40.772Z,11.25
2022-09-20T04:47:08.710Z,11.20
2022-09-20T04:50:01.567Z,11.26
2022-09-20T04:52:53.898Z,11.32
2022-09-20T04:55:32.884Z,11.43
2022-09-20T04:58:06.330Z,11.47
2022-09-20T05:00:42.745Z,11.49
2022-09-20T05:03:33.261Z,11.54
2022-09-20T05:06:06.600Z,11.59
2022-09-20T05:08:49.237Z,11.68
2022-09-20T05:11:17.476Z,11.98
2022-09-20T05:14:08.556Z,12.28
2022-09-20T05:16:55.619Z,12.52
2022-09-20T05:19:34.252Z,12.61
2022-09-20T05:22:19.331Z,12.78
2022-09-20T05:24:50.050Z,13.22
2022-09-20T05:27:17.295Z,13.42
2022-09-20T05:29:44.471Z,13.79
2022-09-20T05:32:14.802Z,14.38
2022-09-20T05:34:51.241Z,14.84
2022-09-20T05:37:18.603Z,15.07
2022-09-20T05:39:55.208Z,15.47
2022-09-20T05:42:41.087Z,16.29
2022-09-20T05:45:18.323Z,16.84
2022-09-20T05:47:48.673Z,16.41
2022-09-20T05:50:34.617Z,16.72
2022-09-20T05:53:24.652Z,16.99
2022-09-20T05:55:51.889Z,16.89
2022-09-20T05:58:28.621Z,17.25
2022-09-20T06:01:02.509Z,18.11
2022-09-20T06:03:33.037Z,19.36
2022-09-20T06:06:03.566Z,19.02
2022-09-20T06:08:46.498Z,17.88
2022-09-20T06:11:28.828Z,16.86
2022-09-20T06:14:15.471Z,16.04
2022-09-20T06:16:43.532Z,15.70
2022-09-20T06:19:19.900Z,15.63
2022-09-20T06:21:58.987Z,15.23
2022-09-20T06:24:48.029Z,15.86
2022-09-20T06:27:19.468Z,17.79
2022-09-20T06:29:50.951Z,20.61
2022-09-20T06:32:18.884Z,23.03
2022-09-20T06:34:47.064Z,25.63
2022-09-20T06:37:38.623Z,26.39
2022-09-20T06:40:39.976Z,27.29
2022-09-20T06:43:07.685Z,26.87
2022-09-20T06:45:36.043Z,25.71
2022-09-20T06:48:03.435Z,25.13
2022-09-20T06:50:31.401Z,23.78
2022-09-20T06:52:58.957Z,22.94
2022-09-20T06:55:30.238Z,21.80
2022-09-20T06:57:57.598Z,20.58
2022-09-20T07:00:24.788Z,19.91
2022-09-20T07:02:52.025Z,19.28
2022-09-20T07:05:22.156Z,18.83
2022-09-20T07:07:49.733Z,19.14
2022-09-20T07:10:19.492Z,19.39
2022-09-20T07:12:47.338Z,19.32
2022-09-20T07:15:15.152Z,20.75
2022-09-20T07:17:44.694Z,21.71
2022-09-20T07:20:12.189Z,22.26
2022-09-20T07:22:39.267Z,22.39
2022-09-20T07:25:08.768Z,22.93
2022-09-20T07:27:37.108Z,22.08
2022-09-20T07:30:04.399Z,21.09
2022-09-20T07:32:31.782Z,20.45
2022-09-20T07:34:59.728Z,20.24
2022-09-20T07:37:27.063Z,21.23
2022-09-20T07:39:54.945Z,21.55
2022-09-20T07:42:22.310Z,20.89
2022-09-20T07:44:51.617Z,20.33
2022-09-20T07:47:21.007Z,19.80
2022-09-20T07:49:48.193Z,19.44
2022-09-20T07:52:16.234Z,20.34
2022-09-20T07:54:43.892Z,20.61
2022-09-20T07:57:11.274Z,22.35
2022-09-20T07:59:38.646Z,24.19
2022-09-20T08:02:06.499Z,24.57
2022-09-20T08:04:33.832Z,24.43
2022-09-20T08:07:01.891Z,24.09
2022-09-20T08:09:29.170Z,23.69
2022-09-20T08:11:57.647Z,23.19
2022-09-20T08:14:25.775Z,22.53
2022-09-20T08:16:53.751Z,22.37
2022-09-20T08:19:23.055Z,22.33
2022-09-20T08:21:51.705Z,21.82
2022-09-20T08:24:19.264Z,21.93
2022-09-20T08:26:46.709Z,21.41
2022-09-20T08:29:15.500Z,20.91
2022-09-20T08:31:43.101Z,21.04
2022-09-20T08:34:12.007Z,22.55
2022-09-20T08:36:41.458Z,23.55
2022-09-20T08:41:58.874Z,22.73
2022-09-20T08:44:29.571Z,21.86
2022-09-20T08:47:04.030Z,21.09
2022-09-20T08:49:31.490Z,20.85
2022-09-20T08:52:04.365Z,20.59
2022-09-20T08:54:33.588Z,20.27
2022-09-20T08:57:13.124Z,20.03
2022-09-20T08:59:41.305Z,19.80
2022-09-20T09:02:19.075Z,19.44
2022-09-20T09:04:46.496Z,18.83
2022-09-20T09:07:14.525Z,18.53
2022-09-20T09:09:47.676Z,18.37
2022-09-20T09:12:34.566Z,18.14
2022-09-20T09:15:17.704Z,17.74
2022-09-20T09:17:45.333Z,17.69
2022-09-20T09:20:17.815Z,18.09
2022-09-20T09:22:46.109Z,18.54
2022-09-20T09:25:13.385Z,18.86
2022-09-20T09:28:04.145Z,18.87
2022-09-20T09:30:33.122Z,18.77
2022-09-20T09:33:17.642Z,18.54
2022-09-20T09:35:45.828Z,18.40
2022-09-20T09:38:18.084Z,18.45
2022-09-20T09:40:55.820Z,18.52
2022-09-20T09:43:27.212Z,18.76
2022-09-20T09:45:55.471Z,18.56
2022-09-20T09:48:22.766Z,18.35
2022-09-20T09:50:50.398Z,18.19
2022-09-20T09:53:21.622Z,18.17
2022-09-20T09:55:58.417Z,18.12
2022-09-20T09:58:28.843Z,18.42
2022-09-20T10:00:57.830Z,18.62
2022-09-20T10:03:43.861Z,18.79
2022-09-20T10:06:11.331Z,18.98
2022-09-20T10:09:01.515Z,18.76
2022-09-20T10:11:43.871Z,18.75
2022-09-20T10:14:29.940Z,18.43
2022-09-20T10:17:17.396Z,18.00
2022-09-20T10:20:02.459Z,17.97
2022-09-20T10:22:34.773Z,18.13
2022-09-20T10:25:15.939Z,18.35
2022-09-20T10:27:43.486Z,18.50
2022-09-20T10:30:16.803Z,18.59
2022-09-20T10:32:47.681Z,18.48
2022-09-20T10:35:21.171Z,18.22
2022-09-20T10:37:49.657Z,17.94
2022-09-20T10:40:24.947Z,17.83
2022-09-20T10:43:14.946Z,17.71
2022-09-20T10:46:20.962Z,17.52
2022-09-20T10:48:52.712Z,17.51
2022-09-20T10:51:25.529Z,17.44
2022-09-20T10:53:55.825Z,17.40
2022-09-20T10:56:29.167Z,17.45
2022-09-20T10:59:17.375Z,17.49
2022-09-20T11:02:00.149Z,17.37
2022-09-20T11:04:27.690Z,16.99
2022-09-20T11:06:55.214Z,16.68
2022-09-20T11:09:25.514Z,16.59
2022-09-20T11:12:18.991Z,16.77
2022-09-20T11:14:50.286Z,16.57
2022-09-20T11:17:22.913Z,16.48
2022-09-20T11:19:56.756Z,16.43
2022-09-20T11:22:39.137Z,16.46
2022-09-20T11:25:20.030Z,16.40
2022-09-20T11:27:54.339Z,16.20
2022-09-20T11:30:22.585Z,16.20
2022-09-20T11:33:15.853Z,16.29
2022-09-20T11:35:46.580Z,16.48
2022-09-20T11:38:16.888Z,16.65
2022-09-20T11:40:53.751Z,16.67
2022-09-20T11:43:21.980Z,16.67
2022-09-20T11:45:53.902Z,16.77
2022-09-20T11:48:29.883Z,16.73
2022-09-20T11:51:03.372Z,16.59
2022-09-20T11:53:43.187Z,16.56
2022-09-20T11:56:18.511Z,16.39
2022-09-20T11:58:53.806Z,16.17
2022-09-20T12:01:28.665Z,15.90
2022-09-20T12:04:14.521Z,15.76
2022-09-20T12:06:46.395Z,15.81
2022-09-20T12:09:24.823Z,15.67
2022-09-20T12:11:55.424Z,15.60
2022-09-20T12:14:28.035Z,15.60
2022-09-20T12:16:55.521Z,15.60
2022-09-20T12:19:22.707Z,15.33
2022-09-20T12:22:10.747Z,15.07
2022-09-20T12:24:45.341Z,15.11
2022-09-20T12:27:41.987Z,15.12
2022-09-20T12:30:20.034Z,15.22
2022-09-20T12:32:52.465Z,15.21
2022-09-20T12:35:49.419Z,15.34
2022-09-20T12:38:38.000Z,15.31
2022-09-20T12:41:08.586Z,15.22
2022-09-20T12:43:37.704Z,15.24
2022-09-20T12:46:09.933Z,15.24
2022-09-20T12:48:39.588Z,15.23
2022-09-20T12:51:34.519Z,15.20
2022-09-20T12:54:02.955Z,15.11
2022-09-20T12:56:34.408Z,15.09
2022-09-20T12:59:05.744Z,14.97
2022-09-20T13:01:35.169Z,14.63
2022-09-20T13:04:21.401Z,14.45
2022-09-20T13:06:49.216Z,14.57
2022-09-20T13:09:16.726Z,14.60
2022-09-20T13:11:44.039Z,14.67
2022-09-20T13:14:17.349Z,14.66
2022-09-20T13:16:59.479Z,14.60
2022-09-20T13:19:39.307Z,14.58
2022-09-20T13:22:15.431Z,14.58
2022-09-20T13:24:45.305Z,14.58
2022-09-20T13:27:19.273Z,14.65
2022-09-20T13:29:47.316Z,14.88
2022-09-20T13:32:31.031Z,15.12
2022-09-20T13:35:10.930Z,15.26
2022-09-20T13:37:47.418Z,15.41
2022-09-20T13:40:18.211Z,15.42
2022-09-20T13:42:46.526Z,15.31
2022-09-20T13:45:14.971Z,15.07
2022-09-20T13:47:43.580Z,14.88
2022-09-20T13:50:18.143Z,14.79
2022-09-20T13:52:47.041Z,14.73
2022-09-20T13:55:29.188Z,14.62
2022-09-20T13:57:57.834Z,14.53
2022-09-20T14:00:25.452Z,14.47
2022-09-20T14:02:57.676Z,14.52
2022-09-20T14:05:26.605Z,14.53
2022-09-20T14:07:54.062Z,14.55
2022-09-20T14:10:31.344Z,14.56
2022-09-20T14:13:02.552Z,14.56
2022-09-20T14:15:33.956Z,14.47
2022-09-20T14:18:01.559Z,14.41
2022-09-20T14:20:28.815Z,14.31
2022-09-20T14:22:59.109Z,14.19
2022-09-20T14:25:27.913Z,14.07
2022-09-20T14:28:28.723Z,13.92
2022-09-20T14:31:06.372Z,13.82
2022-09-20T14:33:33.742Z,13.74
2022-09-20T14:36:01.334Z,13.65
2022-09-20T14:38:28.782Z,13.55
2022-09-20T14:40:57.064Z,13.45
2022-09-20T14:43:26.860Z,13.39
2022-09-20T14:45:59.424Z,13.43
2022-09-20T14:48:28.579Z,13.48
2022-09-20T14:51:16.511Z,13.49
2022-09-20T14:53:50.663Z,13.50
2022-09-20T14:56:27.471Z,13.53
2022-09-20T14:59:09.852Z,13.58
2022-09-20T15:01:41.449Z,13.57
2022-09-20T15:04:36.117Z,13.54
2022-09-20T15:07:05.132Z,13.47
2022-09-20T15:09:32.643Z,13.38
2022-09-20T15:12:07.808Z,13.29
2022-09-20T15:14:37.934Z,13.25
2022-09-20T15:17:05.650Z,13.22
2022-09-20T15:19:33.298Z,13.23
2022-09-20T15:22:00.558Z,13.22
2022-09-20T15:24:28.090Z,13.25
2022-09-20T15:26:55.592Z,13.27
2022-09-20T15:29:22.875Z,13.27
2022-09-20T15:31:50.262Z,13.29
2022-09-20T15:34:18.076Z,13.30
2022-09-20T15:36:45.660Z,13.34
2022-09-20T15:39:12.905Z,13.35
2022-09-20T15:41:41.129Z,13.30
2022-09-20T15:44:08.469Z,13.24
2022-09-20T15:46:35.529Z,13.16
2022-09-20T15:49:03.851Z,13.04
2022-09-20T15:51:31.549Z,12.95
2022-09-20T15:54:00.362Z,12.86
2022-09-20T15:56:29.946Z,12.75
2022-09-20T15:59:05.260Z,12.61
2022-09-20T16:01:40.170Z,12.47
2022-09-20T16:04:15.597Z,12.34
2022-09-20T16:06:48.614Z,12.21
2022-09-20T16:09:34.036Z,12.10
2022-09-20T16:12:09.700Z,11.99
2022-09-20T16:14:45.268Z,11.89
2022-09-20T16:17:19.447Z,11.80
2022-09-20T16:19:52.281Z,11.73
2022-09-20T16:22:23.216Z,11.65
2022-09-20T16:24:53.957Z,11.60
2022-09-20T16:27:21.986Z,11.53
2022-09-20T16:29:49.351Z,11.48
2022-09-20T16:32:16.781Z,11.43
2022-09-20T16:34:47.257Z,11.38
2022-09-20T16:37:16.933Z,11.32
2022-09-20T16:39:44.532Z,11.28
2022-09-20T16:42:12.223Z,11.23
2022-09-20T16:44:45.286Z,11.16
2022-09-20T16:47:14.795Z,11.13
2022-09-20T16:49:46.017Z,11.08
2022-09-20T16:52:13.809Z,11.05
2022-09-20T16:54:43.640Z,11.06
2022-09-20T16:57:10.849Z,11.06
2022-09-20T16:59:38.669Z,11.03
2022-09-20T17:02:06.116Z,11.01
2022-09-20T17:04:33.236Z,10.97
2022-09-20T17:07:04.426Z,10.93
2022-09-20T17:09:31.821Z,10.90
2022-09-20T17:11:59.512Z,10.86
2022-09-20T17:14:26.861Z,10.80
2022-09-20T17:16:56.642Z,10.74
2022-09-20T17:19:23.865Z,10.68
2022-09-20T17:21:56.625Z,10.65
2022-09-20T17:24:25.258Z,10.60
2022-09-20T17:26:53.866Z,10.58
2022-09-20T17:29:21.369Z,10.58
2022-09-20T17:31:55.212Z,10.55
2022-09-20T17:34:24.888Z,10.51
2022-09-20T17:36:52.574Z,10.50
2022-09-20T17:39:20.554Z,10.47
2022-09-20T17:41:49.356Z,10.44
2022-09-20T17:44:16.975Z,10.41
2022-09-20T17:46:45.541Z,10.39
2022-09-20T17:49:14.581Z,10.37
2022-09-20T17:51:45.955Z,10.34
2022-09-20T17:54:14.235Z,10.30
2022-09-20T17:56:43.856Z,10.26
2022-09-20T17:59:11.848Z,10.20
2022-09-20T18:01:40.538Z,10.17
2022-09-20T18:04:08.449Z,10.17
2022-09-20T18:06:37.321Z,10.16
2022-09-20T18:09:06.008Z,10.15
2022-09-20T18:11:34.936Z,10.16
2022-09-20T18:14:02.860Z,10.15
2022-09-20T18:16:31.245Z,10.10
2022-09-20T18:19:00.079Z,10.04
2022-09-20T18:21:28.990Z,9.99
2022-09-20T18:23:57.483Z,9.93
2022-09-20T18:26:26.359Z,9.88
2022-09-20T18:28:57.759Z,9.86
2022-09-20T18:31:26.805Z,9.82
2022-09-20T18:33:55.400Z,9.81
2022-09-20T18:36:25.787Z,9.79
2022-09-20T18:38:57.522Z,9.75
2022-09-20T18:41:26.286Z,9.72
2022-09-20T18:43:55.030Z,9.71
2022-09-20T18:46:25.918Z,9.69
2022-09-20T18:48:53.906Z,9.65
2022-09-20T18:51:22.093Z,9.59
2022-09-20T18:53:49.535Z,9.57
2022-09-20T18:56:23.009Z,9.54
2022-09-20T18:58:51.935Z,9.50
2022-09-20T19:01:25.423Z,9.48
2022-09-20T19:03:58.569Z,9.46
2022-09-20T19:06:30.766Z,9.42
2022-09-20T19:09:02.428Z,9.41
2022-09-20T19:11:45.058Z,9.40
2022-09-20T19:14:21.827Z,9.34
2022-09-20T19:16:50.662Z,9.31
2022-09-20T19:19:32.512Z,9.29
2022-09-20T19:22:00.114Z,9.26
2022-09-20T19:24:45.799Z,9.25
2022-09-20T19:27:13.886Z,9.22
2022-09-20T19:29:41.247Z,9.21
2022-09-20T19:32:15.823Z,9.18
2022-09-20T19:34:43.907Z,9.13
2022-09-20T19:37:23.531Z,9.11
2022-09-20T19:39:56.977Z,9.10
2022-09-20T19:42:32.452Z,9.05
2022-09-20T19:45:15.572Z,8.99
2022-09-20T19:47:50.397Z,8.96
2022-09-20T19:50:46.753Z,8.94
2022-09-20T19:53:15.248Z,8.90
2022-09-20T19:55:46.444Z,8.87
2022-09-20T19:58:14.684Z,8.81
2022-09-20T20:00:46.192Z,8.78
2022-09-20T20:03:14.286Z,8.77
2022-09-20T20:05:46.435Z,8.74
2022-09-20T20:08:20.246Z,8.72
2022-09-20T20:11:05.997Z,8.73
2022-09-20T20:13:59.684Z,8.70
2022-09-20T20:16:33.707Z,8.70
2022-09-20T20:19:10.065Z,8.70
2022-09-20T20:21:55.087Z,8.70
2022-09-20T20:24:28.408Z,8.72
2022-09-20T20:26:55.968Z,8.69
2022-09-20T20:29:23.263Z,8.66
2022-09-20T20:31:50.590Z,8.64
2022-09-20T20:34:18.449Z,8.62
2022-09-20T20:36:45.652Z,8.61
2022-09-20T20:39:13.186Z,8.56
2022-09-20T20:41:41.309Z,8.53
2022-09-20T20:44:08.568Z,8.51
2022-09-20T20:46:36.246Z,8.51
2022-09-20T20:49:03.739Z,8.49
2022-09-20T20:51:33.198Z,8.47
2022-09-20T20:54:01.150Z,8.46
2022-09-20T20:56:30.033Z,8.45
2022-09-20T20:59:00.745Z,8.46
2022-09-20T21:01:32.328Z,8.43
2022-09-20T21:03:59.629Z,8.40
2022-09-20T21:06:28.544Z,8.39
2022-09-20T21:08:56.160Z,8.37
2022-09-20T21:11:24.615Z,8.35
2022-09-20T21:13:52.626Z,8.33
2022-09-20T21:16:24.935Z,8.31
2022-09-20T21:18:52.466Z,8.27
2022-09-20T21:21:19.602Z,8.24
2022-09-20T21:23:48.414Z,8.22
2022-09-20T21:26:16.211Z,8.20
2022-09-20T21:28:51.322Z,8.18
2022-09-20T21:31:19.202Z,8.16
2022-09-20T21:33:46.744Z,8.16
2022-09-20T21:36:17.999Z,8.14
2022-09-20T21:38:45.763Z,8.14
2022-09-20T21:41:14.328Z,8.13
2022-09-20T21:43:43.678Z,8.10
2022-09-20T21:46:11.903Z,8.06
2022-09-20T21:48:39.812Z,8.05
2022-09-20T21:51:08.019Z,8.03
2022-09-20T21:53:35.603Z,7.99
2022-09-20T21:56:06.885Z,7.96
2022-09-20T21:58:34.573Z,7.95
2022-09-20T22:01:12.705Z,7.94
2022-09-20T22:04:06.009Z,7.94
2022-09-20T22:06:34.839Z,7.89
2022-09-20T22:09:04.383Z,7.85
2022-09-20T22:11:36.392Z,7.83
2022-09-20T22:14:03.838Z,7.83
2022-09-20T22:16:32.074Z,7.81
2022-09-20T22:19:02.498Z,7.81
2022-09-20T22:21:31.057Z,7.80
2022-09-20T22:24:00.458Z,7.78
2022-09-20T22:26:30.487Z,7.76
2022-09-20T22:28:57.910Z,7.75
2022-09-20T22:31:26.142Z,7.75
2022-09-20T22:33:55.130Z,7.74
2022-09-20T22:36:23.792Z,7.76
2022-09-20T22:38:51.515Z,7.76
2022-09-20T22:41:19.517Z,7.77
2022-09-20T22:43:46.853Z,7.77
2022-09-20T22:46:15.277Z,7.76
2022-09-20T22:48:42.784Z,7.76
2022-09-20T22:51:20.232Z,7.77
2022-09-20T22:53:48.039Z,7.76
2022-09-20T22:56:16.476Z,7.76
2022-09-20T22:58:46.820Z,7.75
2022-09-20T23:01:24.352Z,7.73
2022-09-20T23:03:56.279Z,7.73
2022-09-20T23:06:30.707Z,7.72
2022-09-20T23:08:59.726Z,7.73
2022-09-20T23:11:27.841Z,7.73
2022-09-20T23:13:56.887Z,7.73
2022-09-20T23:16:25.883Z,7.73
2022-09-20T23:18:53.714Z,7.73
2022-09-20T23:21:21.362Z,7.72
2022-09-20T23:23:52.785Z,7.73
2022-09-20T23:26:20.974Z,7.73
2022-09-20T23:28:52.772Z,7.74
2022-09-20T23:31:20.330Z,7.74
2022-09-20T23:33:48.561Z,7.73
2022-09-20T23:36:16.438Z,7.72
2022-09-20T23:38:43.776Z,7.70
2022-09-20T23:41:12.422Z,7.66
2022-09-20T23:43:40.265Z,7.63
2022-09-20T23:46:08.262Z,7.60
2022-09-20T23:48:39.326Z,7.59
2022-09-20T23:51:07.643Z,7.59
2022-09-20T23:53:35.197Z,7.61
2022-09-20T23:56:02.542Z,7.60
2022-09-20T23:58:29.957Z,7.56
